Time;durP1;ratioP1;P1;durP2;ratioP2;P2;SDS_P1;SDS_P2;PMS_P1;PMS_P2;Temp;Humidity;BMP_temperature;BMP_pressure;BME280_temperature;BME280_humidity;BME280_pressure;Samples;Min_cycle;Max_cycle;Signal;HPM_P1;HPM_P2
2022/12/23 00:01:48;;;;;;;104.15;54.70;;;10.70;1.00;;;;;;5030877;28;20022;-61
2022/12/23 00:04:13;;;;;;;83.65;47.08;;;10.60;1.00;;;;;;5031777;28;20455;-61
2022/12/23 00:06:39;;;;;;;72.38;42.50;;;10.70;1.00;;;;;;5031872;28;20025;-61
2022/12/23 00:09:05;;;;;;;67.28;43.80;;;10.70;1.00;;;;;;5031733;28;20052;-61
2022/12/23 00:11:30;;;;;;;62.75;41.40;;;10.70;1.00;;;;;;5030327;28;20025;-61
2022/12/23 00:16:40;;;;;;;48.92;37.20;;;10.70;1.00;;;;;;5032176;28;20422;-61
2022/12/23 00:19:06;;;;;;;43.00;35.63;;;10.60;1.00;;;;;;5026159;28;20021;-61
2022/12/23 00:21:32;;;;;;;42.85;34.35;;;10.80;1.00;;;;;;5031705;28;20050;-61
2022/12/23 00:23:57;;;;;;;43.13;35.10;;;10.70;1.00;;;;;;5031787;28;20448;-61
2022/12/23 00:26:26;;;;;;;42.75;34.20;;;10.80;1.00;;;;;;5031477;28;20018;-61
2022/12/23 00:28:56;;;;;;;42.88;33.13;;;10.80;1.00;;;;;;5032561;28;20060;-61
2022/12/23 00:31:22;;;;;;;40.47;34.28;;;10.80;1.00;;;;;;5034984;28;20029;-61
2022/12/23 00:33:52;;;;;;;42.38;36.08;;;10.80;1.00;;;;;;5025372;28;20041;-61
2022/12/23 00:36:28;;;;;;;43.88;36.10;;;10.80;1.00;;;;;;5033798;28;20030;-62
2022/12/23 00:44:41;;;;;;;48.03;38.25;;;10.80;1.00;;;;;;5021097;28;20030;-61
2022/12/23 00:49:40;;;;;;;49.22;39.72;;;10.90;1.00;;;;;;5032606;28;20033;-61
2022/12/23 00:49:52;;;;;;;49.45;40.95;;;10.90;1.00;;;;;;5032720;28;20036;-60
2022/12/23 00:52:17;;;;;;;49.53;41.28;;;10.70;1.00;;;;;;5035315;28;20042;-61
2022/12/23 00:54:49;;;;;;;48.67;40.72;;;10.70;1.00;;;;;;5028286;28;20124;-60
2022/12/23 00:57:15;;;;;;;52.25;41.60;;;10.80;1.00;;;;;;5034890;28;20026;-61
2022/12/23 00:59:40;;;;;;;46.03;39.33;;;10.70;1.00;;;;;;5034757;28;20099;-60
2022/12/23 01:07:35;;;;;;;50.65;40.28;;;10.80;1.00;;;;;;5034292;28;20044;-61
2022/12/23 01:10:00;;;;;;;51.50;41.53;;;10.90;1.00;;;;;;5036895;28;20426;-61
2022/12/23 01:12:26;;;;;;;52.90;42.25;;;10.90;1.00;;;;;;5033102;28;20029;-61
2022/12/23 01:14:52;;;;;;;51.95;42.67;;;10.80;1.00;;;;;;5033235;28;20510;-61
2022/12/23 01:17:17;;;;;;;52.50;41.05;;;10.90;1.00;;;;;;5034576;28;20029;-61
2022/12/23 01:19:46;;;;;;;52.33;40.70;;;10.90;1.00;;;;;;5042631;28;20068;-60
2022/12/23 01:22:12;;;;;;;55.53;42.33;;;10.90;1.00;;;;;;5045219;28;20086;-61
2022/12/23 01:24:41;;;;;;;52.35;43.08;;;10.90;1.00;;;;;;5036093;28;20018;-61
2022/12/23 01:27:06;;;;;;;51.13;42.50;;;10.90;1.00;;;;;;5034411;28;20029;-61
2022/12/23 01:29:32;;;;;;;51.78;42.33;;;10.90;1.00;;;;;;5023559;28;20380;-61
2022/12/23 01:31:57;;;;;;;52.58;42.75;;;10.90;1.00;;;;;;5047099;28;20025;-61
2022/12/23 01:34:23;;;;;;;53.33;43.10;;;11.00;1.00;;;;;;5034190;28;20045;-61
2022/12/23 01:36:49;;;;;;;52.72;42.88;;;10.90;1.00;;;;;;5034362;28;20021;-61
2022/12/23 01:39:14;;;;;;;52.58;43.63;;;10.90;1.00;;;;;;5034119;28;20033;-61
2022/12/23 01:44:56;;;;;;;54.67;41.63;;;10.80;1.00;;;;;;5031845;28;20052;-62
2022/12/23 01:47:39;;;;;;;51.88;42.58;;;10.80;1.00;;;;;;5041242;28;20024;-61
2022/12/23 01:50:23;;;;;;;52.70;42.20;;;10.80;1.00;;;;;;5038300;28;20021;-61
2022/12/23 01:52:59;;;;;;;55.30;44.17;;;10.80;1.00;;;;;;5033623;28;20033;-61
2022/12/23 01:55:31;;;;;;;54.72;45.10;;;10.80;1.00;;;;;;5032813;28;20498;-61
2022/12/23 01:58:09;;;;;;;53.63;44.13;;;10.80;1.00;;;;;;5033728;28;20037;-61
2022/12/23 02:11:55;;;;;;;55.83;43.92;;;10.80;1.00;;;;;;5024502;28;20367;-61
2022/12/23 02:17:45;;;;;;;;;;;10.90;1.00;;;;;;5032994;28;20087;-61
2022/12/23 02:20:31;;;;;;;60.08;44.95;;;10.90;1.00;;;;;;5032492;28;19960;-61
2022/12/23 02:23:18;;;;;;;57.00;43.70;;;10.90;1.00;;;;;;5024338;28;20030;-61
2022/12/23 02:25:50;;;;;;;53.95;43.17;;;10.90;1.00;;;;;;5032596;28;20041;-60
2022/12/23 02:28:21;;;;;;;51.03;42.80;;;10.90;1.00;;;;;;5032445;28;20033;-61
2022/12/23 02:31:17;;;;;;;53.08;43.88;;;10.90;1.00;;;;;;5032558;28;20112;-61
2022/12/23 02:34:15;;;;;;;54.97;43.97;;;10.90;1.00;;;;;;5027331;28;20061;-61
2022/12/23 02:37:07;;;;;;;51.28;42.70;;;10.90;1.00;;;;;;5032520;28;20029;-61
2022/12/23 02:39:35;;;;;;;50.90;42.83;;;10.80;1.00;;;;;;5032582;28;20017;-61
2022/12/23 02:42:08;;;;;;;51.83;41.70;;;10.90;1.00;;;;;;5026938;28;20034;-61
2022/12/23 02:44:43;;;;;;;51.95;43.20;;;10.90;1.00;;;;;;5032361;28;20104;-61
2022/12/23 02:47:20;;;;;;;55.45;43.50;;;10.90;1.00;;;;;;5031566;28;20045;-61
2022/12/23 02:49:55;;;;;;;53.95;42.70;;;10.90;1.00;;;;;;5019466;28;20470;-61
2022/12/23 02:52:25;;;;;;;56.58;41.58;;;10.90;1.00;;;;;;5032992;28;20080;-61
2022/12/23 02:55:00;;;;;;;51.60;41.42;;;10.90;1.00;;;;;;5032641;28;20124;-60
2022/12/23 02:57:35;;;;;;;52.47;41.65;;;10.90;1.00;;;;;;5032630;28;20025;-61
2022/12/23 03:00:02;;;;;;;53.78;42.60;;;10.70;1.00;;;;;;5026114;28;20079;-61
2022/12/23 03:02:34;;;;;;;54.72;42.40;;;10.80;1.00;;;;;;5032584;28;20025;-61
2022/12/23 03:05:11;;;;;;;56.90;43.15;;;10.80;1.00;;;;;;5032721;28;20072;-61
2022/12/23 03:07:42;;;;;;;53.85;42.45;;;10.80;1.00;;;;;;5032463;28;20018;-61
2022/12/23 03:10:33;;;;;;;54.92;43.33;;;10.80;1.00;;;;;;5031752;28;20140;-60
2022/12/23 03:13:17;;;;;;;52.10;40.70;;;10.80;1.00;;;;;;5028393;28;20041;-61
2022/12/23 03:16:00;;;;;;;57.57;43.13;;;10.80;1.00;;;;;;5022514;28;20087;-61
2022/12/23 03:18:49;;;;;;;54.08;43.70;;;10.80;1.00;;;;;;5032306;28;20021;-61
2022/12/23 03:21:45;;;;;;;55.70;44.33;;;10.70;1.00;;;;;;5027061;28;20379;-61
2022/12/23 03:24:19;;;;;;;55.15;42.03;;;10.80;1.00;;;;;;5035732;28;20491;-61
2022/12/23 03:27:02;;;;;;;57.90;44.47;;;10.80;1.00;;;;;;5032113;28;20047;-61
2022/12/23 03:29:28;;;;;;;54.05;42.25;;;10.80;1.00;;;;;;5034293;28;20030;-61
2022/12/23 03:32:01;;;;;;;57.30;44.35;;;10.70;1.00;;;;;;5045928;28;20041;-61
2022/12/23 03:35:07;;;;;;;59.60;44.08;;;10.80;1.00;;;;;;5032601;28;20039;-60
2022/12/23 03:37:36;;;;;;;57.88;41.35;;;10.80;1.00;;;;;;5029193;28;20383;-60
2022/12/23 03:40:11;;;;;;;59.60;44.20;;;10.80;1.00;;;;;;5032100;28;20029;-61
2022/12/23 03:42:40;;;;;;;;;;;10.90;1.00;;;;;;5034928;28;20171;-61
2022/12/23 03:45:15;;;;;;;56.20;41.30;;;10.80;1.00;;;;;;5042702;28;19905;-61
2022/12/23 03:47:47;;;;;;;62.85;44.38;;;10.70;1.00;;;;;;5031973;28;20029;-61
2022/12/23 03:50:16;;;;;;;55.75;42.35;;;10.80;1.00;;;;;;5032096;28;20033;-61
2022/12/23 03:52:58;;;;;;;56.67;44.28;;;10.80;1.00;;;;;;5022466;28;20109;-61
2022/12/23 03:55:34;;;;;;;58.15;43.47;;;10.90;1.00;;;;;;5031566;28;20030;-60
2022/12/23 03:58:20;;;;;;;60.53;43.42;;;10.90;1.00;;;;;;5031672;28;20021;-61
2022/12/23 04:01:24;;;;;;;54.15;42.42;;;10.90;1.00;;;;;;5043239;28;20052;-60
2022/12/23 04:04:07;;;;;;;52.90;41.00;;;10.80;1.00;;;;;;5015520;28;20071;-61
2022/12/23 04:06:41;;;;;;;59.42;45.17;;;10.80;1.00;;;;;;5033911;28;20479;-61
2022/12/23 04:09:08;;;;;;;57.97;44.50;;;10.90;1.00;;;;;;5036241;28;20087;-61
2022/12/23 04:15:00;;;;;;;55.50;43.78;;;10.80;1.00;;;;;;5017948;28;20052;-61
2022/12/23 04:17:27;;;;;;;59.22;44.20;;;10.90;1.00;;;;;;5032064;28;20110;-61
2022/12/23 04:19:54;;;;;;;60.65;45.30;;;10.90;1.00;;;;;;5034354;28;20061;-60
2022/12/23 04:22:19;;;;;;;56.90;43.55;;;10.90;1.00;;;;;;5026906;28;20025;-61
2022/12/23 04:24:45;;;;;;;57.85;44.30;;;10.90;1.00;;;;;;5035491;28;20033;-61
2022/12/23 04:27:15;;;;;;;58.65;44.13;;;10.90;1.00;;;;;;5035465;28;20029;-61
2022/12/23 04:29:42;;;;;;;51.03;42.05;;;10.90;1.00;;;;;;5033694;28;20084;-61
2022/12/23 04:32:08;;;;;;;56.90;44.80;;;10.90;1.00;;;;;;5035301;28;20017;-60
2022/12/23 04:34:42;;;;;;;56.28;43.92;;;10.90;1.00;;;;;;5033345;28;20048;-61
2022/12/23 04:37:09;;;;;;;;;;;10.90;1.00;;;;;;5035808;28;20367;-61
2022/12/23 04:39:34;;;;;;;59.83;43.90;;;10.90;1.00;;;;;;5023450;28;20004;-61
2022/12/23 04:42:09;;;;;;;57.47;42.55;;;10.90;1.00;;;;;;5035357;28;20032;-61
2022/12/23 04:44:35;;;;;;;;;;;10.90;1.00;;;;;;5034152;28;20545;-60
2022/12/23 04:47:00;;;;;;;58.17;44.92;;;10.90;1.00;;;;;;5033880;28;19904;-61
2022/12/23 04:49:26;;;;;;;57.63;42.55;;;10.90;1.00;;;;;;5030519;28;20041;-61
2022/12/23 04:51:51;;;;;;;56.72;41.33;;;10.90;1.00;;;;;;5034856;28;20017;-60
2022/12/23 04:54:17;;;;;;;60.05;42.92;;;11.00;1.00;;;;;;5034893;28;20034;-61
2022/12/23 04:56:43;;;;;;;54.10;43.40;;;10.90;1.00;;;;;;5034591;28;20018;-61
2022/12/23 04:59:09;;;;;;;55.38;41.67;;;10.90;1.00;;;;;;5035139;28;20411;-61
2022/12/23 05:01:35;;;;;;;63.15;44.80;;;10.90;1.00;;;;;;5032956;28;20025;-61
2022/12/23 05:04:00;;;;;;;58.45;42.45;;;10.90;1.00;;;;;;5034863;28;20358;-61
2022/12/23 05:06:26;;;;;;;57.75;42.75;;;10.90;1.00;;;;;;5034874;28;20022;-61
2022/12/23 05:08:52;;;;;;;59.92;43.97;;;10.90;1.00;;;;;;5034673;28;20044;-61
2022/12/23 05:11:17;;;;;;;54.40;43.67;;;11.00;1.00;;;;;;5027177;28;20033;-61
2022/12/23 05:13:43;;;;;;;59.10;42.90;;;11.00;1.00;;;;;;5030715;28;20037;-61
2022/12/23 05:16:09;;;;;;;56.78;42.28;;;10.90;1.00;;;;;;5033339;28;20022;-61
2022/12/23 05:18:34;;;;;;;58.22;42.58;;;10.60;1.00;;;;;;5034361;28;20068;-61
2022/12/23 05:21:00;;;;;;;57.08;42.92;;;10.60;1.00;;;;;;5028759;28;20070;-61
2022/12/23 05:23:25;;;;;;;60.20;42.33;;;10.80;1.00;;;;;;5021465;28;20064;-61
2022/12/23 05:25:52;;;;;;;61.47;44.15;;;10.80;1.00;;;;;;5033597;28;20079;-61
2022/12/23 05:28:19;;;;;;;54.85;41.97;;;10.90;1.00;;;;;;5034344;28;20506;-61
2022/12/23 05:30:45;;;;;;;56.33;43.22;;;10.90;1.00;;;;;;5034255;28;20466;-61
2022/12/23 05:33:10;;;;;;;59.65;43.95;;;11.00;1.00;;;;;;5034214;28;20025;-61
2022/12/23 05:35:36;;;;;;;58.63;43.75;;;11.00;1.00;;;;;;5033060;28;20489;-61
2022/12/23 05:38:02;;;;;;;60.58;43.55;;;10.90;1.00;;;;;;5023373;28;20025;-61
2022/12/23 05:40:28;;;;;;;56.85;40.85;;;11.00;1.00;;;;;;5026424;28;20056;-61
2022/12/23 05:42:54;;;;;;;54.70;42.53;;;11.00;1.00;;;;;;5034021;28;20032;-61
2022/12/23 05:45:20;;;;;;;53.97;41.83;;;11.00;1.00;;;;;;5032409;28;20100;-61
2022/12/23 05:47:45;;;;;;;57.08;42.70;;;11.00;1.00;;;;;;5034643;28;20018;-61
2022/12/23 05:50:14;;;;;;;57.80;43.75;;;11.00;1.00;;;;;;5033252;28;20033;-60
2022/12/23 05:52:40;;;;;;;58.63;44.72;;;11.00;1.00;;;;;;5031943;28;20036;-61
2022/12/23 05:55:06;;;;;;;54.22;43.55;;;11.00;1.00;;;;;;5034182;28;20543;-61
2022/12/23 05:57:38;;;;;;;62.83;44.65;;;11.00;1.00;;;;;;5033379;28;20063;-61
2022/12/23 06:00:04;;;;;;;57.65;44.78;;;11.00;1.00;;;;;;5025012;28;20029;-61
2022/12/23 06:02:30;;;;;;;55.15;42.38;;;11.00;1.00;;;;;;5033507;28;20072;-61
2022/12/23 06:04:56;;;;;;;56.90;43.10;;;11.00;1.00;;;;;;5033710;28;20025;-61
2022/12/23 06:07:21;;;;;;;61.05;45.08;;;11.00;1.00;;;;;;5032168;28;20055;-61
2022/12/23 06:09:47;;;;;;;59.72;44.80;;;11.00;1.00;;;;;;5025808;28;20053;-61
2022/12/23 06:12:12;;;;;;;57.25;44.53;;;11.00;1.00;;;;;;5033701;28;20386;-61
2022/12/23 06:14:38;;;;;;;64.80;44.70;;;11.00;1.00;;;;;;5033554;28;20030;-61
2022/12/23 06:17:04;;;;;;;61.47;43.97;;;11.00;1.00;;;;;;5033175;28;20013;-61
2022/12/23 06:19:29;;;;;;;59.03;45.13;;;11.00;1.00;;;;;;5026767;28;20026;-61
2022/12/23 06:21:55;;;;;;;61.63;44.58;;;11.10;1.00;;;;;;5033406;28;20479;-61
2022/12/23 06:24:27;;;;;;;54.95;42.22;;;11.10;1.00;;;;;;5033385;28;20037;-61
2022/12/23 06:26:52;;;;;;;60.45;45.58;;;11.10;1.00;;;;;;5032696;28;20037;-61
2022/12/23 06:29:18;;;;;;;57.05;43.58;;;11.10;1.00;;;;;;5032410;28;20502;-61
2022/12/23 06:31:44;;;;;;;64.05;45.00;;;11.10;1.00;;;;;;5017590;28;20029;-61
2022/12/23 06:34:09;;;;;;;57.80;42.65;;;11.10;1.00;;;;;;5033266;28;20045;-61
2022/12/23 06:36:35;;;;;;;58.72;43.65;;;11.10;1.00;;;;;;5031156;28;20108;-61
2022/12/23 06:39:00;;;;;;;59.15;43.88;;;11.10;1.00;;;;;;5033297;28;20033;-61
2022/12/23 06:41:26;;;;;;;59.25;44.55;;;11.10;1.00;;;;;;5033012;28;20047;-61
2022/12/23 06:43:52;;;;;;;58.53;40.78;;;11.10;1.00;;;;;;5032668;28;20483;-61
2022/12/23 06:46:17;;;;;;;57.88;42.75;;;11.10;1.00;;;;;;5025100;28;20574;-61
2022/12/23 06:48:43;;;;;;;60.63;43.30;;;11.10;1.00;;;;;;5032666;28;20040;-61
2022/12/23 06:51:09;;;;;;;57.83;44.92;;;11.20;1.00;;;;;;5033017;28;20032;-62
2022/12/23 06:53:35;;;;;;;58.08;43.38;;;11.20;1.00;;;;;;5031384;28;20075;-61
2022/12/23 06:56:02;;;;;;;64.28;44.92;;;11.10;1.00;;;;;;5032609;28;20041;-61
2022/12/23 06:58:28;;;;;;;64.15;44.20;;;11.20;1.00;;;;;;5031272;28;20029;-61
2022/12/23 07:00:54;;;;;;;64.50;44.28;;;11.10;1.00;;;;;;5030803;28;20025;-61
2022/12/23 07:03:20;;;;;;;63.42;43.75;;;11.10;1.00;;;;;;5032791;28;20021;-61
2022/12/23 07:05:47;;;;;;;61.72;44.40;;;11.10;1.00;;;;;;5032523;28;20056;-61
2022/12/23 07:08:13;;;;;;;64.65;45.15;;;11.10;1.00;;;;;;5032569;28;20033;-61
2022/12/23 07:10:38;;;;;;;65.95;44.55;;;11.10;1.00;;;;;;5032701;28;20044;-61
2022/12/23 07:13:04;;;;;;;63.17;45.10;;;11.10;1.00;;;;;;5030942;28;20026;-61
2022/12/23 07:15:30;;;;;;;64.43;45.05;;;11.20;1.00;;;;;;5025160;28;20464;-61
2022/12/23 07:17:55;;;;;;;66.50;45.05;;;11.10;1.00;;;;;;5032440;28;20029;-61
2022/12/23 07:20:21;;;;;;;64.82;45.40;;;11.20;1.00;;;;;;5032275;28;20048;-61
2022/12/23 07:22:49;;;;;;;71.25;47.63;;;11.10;1.00;;;;;;5031951;28;20022;-62
2022/12/23 07:25:15;;;;;;;68.25;45.78;;;11.20;1.00;;;;;;5032553;28;20375;-62
2022/12/23 07:27:41;;;;;;;74.15;45.35;;;11.10;1.00;;;;;;5031736;28;20025;-61
2022/12/23 07:30:07;;;;;;;72.40;48.10;;;11.20;1.00;;;;;;5031990;28;20021;-61
2022/12/23 07:32:33;;;;;;;73.82;48.20;;;11.20;1.00;;;;;;5021291;28;20060;-61
2022/12/23 07:34:59;;;;;;;73.97;47.47;;;11.20;1.00;;;;;;5022042;28;20065;-61
2022/12/23 07:37:24;;;;;;;72.93;47.28;;;11.20;1.00;;;;;;5030646;28;20108;-61
2022/12/23 07:39:50;;;;;;;74.60;47.08;;;11.20;1.00;;;;;;5031344;28;20025;-61
2022/12/23 07:42:16;;;;;;;78.00;49.08;;;11.20;1.00;;;;;;5028222;28;20068;-61
2022/12/23 07:44:41;;;;;;;75.22;46.50;;;11.20;1.00;;;;;;5032218;28;20052;-61
2022/12/23 07:47:07;;;;;;;74.57;46.67;;;11.10;1.00;;;;;;5029832;28;20026;-61
2022/12/23 07:49:33;;;;;;;74.30;48.83;;;11.20;1.00;;;;;;5032098;28;20060;-61
2022/12/23 07:51:58;;;;;;;75.20;49.42;;;11.20;1.00;;;;;;5032167;28;20025;-61
2022/12/23 07:54:24;;;;;;;71.85;47.70;;;11.20;1.00;;;;;;5030576;28;20029;-61
2022/12/23 07:56:50;;;;;;;72.90;46.25;;;11.30;1.00;;;;;;5032049;28;20029;-62
2022/12/23 07:59:15;;;;;;;76.28;48.38;;;11.20;1.00;;;;;;5031902;28;20305;-61
2022/12/23 08:01:50;;;;;;;73.72;47.67;;;11.30;1.00;;;;;;5026600;28;20064;-61
2022/12/23 08:04:16;;;;;;;;;;;11.30;1.00;;;;;;5024405;28;20022;-61
2022/12/23 08:06:41;;;;;;;75.85;48.35;;;11.20;1.00;;;;;;5031875;28;20306;-64
2022/12/23 08:09:08;;;;;;;73.78;48.97;;;11.30;1.00;;;;;;5031918;28;20112;-62
2022/12/23 08:11:34;;;;;;;76.22;49.78;;;11.30;1.00;;;;;;5031605;28;20028;-62
2022/12/23 08:14:00;;;;;;;74.40;49.15;;;11.20;1.00;;;;;;5031620;28;20038;-62
2022/12/23 08:16:25;;;;;;;74.43;49.55;;;11.30;1.00;;;;;;5030665;28;20025;-57
2022/12/23 08:18:51;;;;;;;72.93;49.45;;;11.20;1.00;;;;;;5031563;28;20072;-60
2022/12/23 08:21:18;;;;;;;75.07;47.95;;;11.30;1.00;;;;;;5030711;28;20045;-60
2022/12/23 08:23:46;;;;;;;79.72;50.78;;;11.30;1.00;;;;;;5030040;28;20025;-66
2022/12/23 08:26:19;;;;;;;74.28;49.97;;;11.30;1.00;;;;;;5029430;28;20505;-66
2022/12/23 08:28:46;;;;;;;74.63;50.17;;;11.40;1.00;;;;;;5031528;28;20017;-67
2022/12/23 08:31:17;;;;;;;76.15;51.40;;;11.40;1.00;;;;;;5030193;28;20040;-63
2022/12/23 08:33:48;;;;;;;75.95;48.92;;;11.40;1.00;;;;;;5029609;28;20034;-66
2022/12/23 08:36:33;;;;;;;73.57;49.15;;;11.30;1.00;;;;;;5029551;28;20026;-65
2022/12/23 08:39:02;;;;;;;74.90;49.50;;;11.40;1.00;;;;;;5026661;28;20088;-67
2022/12/23 08:41:30;;;;;;;78.60;50.20;;;11.40;1.00;;;;;;5027884;28;20025;-66
2022/12/23 08:43:56;;;;;;;73.82;50.33;;;11.50;1.00;;;;;;5031506;28;20025;-68
2022/12/23 08:46:22;;;;;;;77.53;50.80;;;11.40;1.00;;;;;;5020859;28;20037;-68
2022/12/23 08:48:52;;;;;;;75.90;50.13;;;11.40;1.00;;;;;;5031322;28;20207;-69
2022/12/23 08:51:19;;;;;;;71.10;49.78;;;11.40;1.00;;;;;;5034301;28;20426;-71
2022/12/23 08:53:45;;;;;;;71.53;49.38;;;11.40;1.00;;;;;;5034980;28;20091;-67
2022/12/23 08:56:16;;;;;;;68.78;50.35;;;11.40;1.00;;;;;;5034984;28;20014;-70
2022/12/23 08:58:44;;;;;;;67.03;48.08;;;11.40;1.00;;;;;;5035254;28;20438;-71
2022/12/23 09:01:12;;;;;;;73.97;51.80;;;11.40;1.00;;;;;;5034598;28;20033;-67
2022/12/23 09:03:38;;;;;;;63.05;45.70;;;11.30;1.00;;;;;;5035153;28;20049;-67
2022/12/23 09:06:06;;;;;;;72.03;49.03;;;11.10;1.00;;;;;;5034680;28;20036;-69
2022/12/23 09:08:32;;;;;;;75.03;48.38;;;11.20;1.00;;;;;;5034483;28;20236;-64
2022/12/23 09:10:57;;;;;;;67.03;48.10;;;11.40;1.00;;;;;;5034482;28;20235;-65
2022/12/23 09:13:23;;;;;;;65.22;47.53;;;11.40;1.00;;;;;;5029485;28;20048;-58
2022/12/23 09:15:49;;;;;;;68.05;50.25;;;11.40;1.00;;;;;;5034694;28;20087;-57
2022/12/23 09:18:15;;;;;;;63.45;46.78;;;11.50;1.00;;;;;;5033183;28;20114;-59
2022/12/23 09:24:02;;;;;;;69.50;50.38;;;11.10;1.00;;;;;;5018046;28;20092;-60
2022/12/23 09:26:30;;;;;;;70.95;50.50;;;11.30;1.00;;;;;;5034214;28;20116;-62
2022/12/23 09:28:56;;;;;;;70.53;49.88;;;11.30;1.00;;;;;;5034015;28;20115;-63
2022/12/23 09:31:23;;;;;;;70.07;51.45;;;11.30;1.00;;;;;;5028693;28;20029;-60
2022/12/23 09:33:51;;;;;;;67.13;50.88;;;11.40;1.00;;;;;;5027960;28;20181;-62
2022/12/23 09:36:16;;;;;;;69.63;50.08;;;11.30;1.00;;;;;;5022919;28;20033;-60
2022/12/23 09:38:42;;;;;;;62.78;47.13;;;11.50;1.00;;;;;;5034054;28;20029;-61
2022/12/23 09:41:19;;;;;;;69.25;51.60;;;11.70;1.00;;;;;;5032595;28;20025;-60
2022/12/23 09:43:52;;;;;;;67.60;48.65;;;11.50;1.00;;;;;;5034087;28;20029;-63
2022/12/23 09:46:21;;;;;;;70.72;49.60;;;11.70;1.00;;;;;;5034191;28;20017;-64
2022/12/23 09:49:04;;;;;;;66.53;50.33;;;11.70;1.00;;;;;;5029439;28;20103;-62
2022/12/23 09:51:31;;;;;;;65.18;50.75;;;11.70;1.00;;;;;;5032326;28;20029;-59
2022/12/23 09:54:20;;;;;;;65.72;49.38;;;11.70;1.00;;;;;;5039534;28;20041;-61
2022/12/23 09:56:54;;;;;;;63.35;50.45;;;11.60;1.00;;;;;;5030578;28;20026;-58
2022/12/23 09:59:44;;;;;;;65.25;51.28;;;11.60;1.00;;;;;;5028673;28;20064;-55
2022/12/23 10:02:38;;;;;;;65.65;50.35;;;11.70;1.00;;;;;;5031908;28;20415;-57
2022/12/23 10:05:28;;;;;;;62.53;48.50;;;11.60;1.00;;;;;;5033251;28;20028;-61
2022/12/23 10:08:00;;;;;;;61.88;50.92;;;11.50;1.00;;;;;;5025376;28;20480;-61
2022/12/23 10:10:41;;;;;;;67.63;51.90;;;11.60;1.00;;;;;;5031706;28;20144;-61
2022/12/23 10:13:34;;;;;;;62.47;48.95;;;11.80;1.00;;;;;;5033264;28;20483;-60
2022/12/23 10:16:05;;;;;;;64.15;51.03;;;11.90;1.00;;;;;;5033225;28;20033;-60
2022/12/23 10:18:57;;;;;;;65.55;51.20;;;11.80;1.00;;;;;;5031661;28;20072;-60
2022/12/23 10:21:31;;;;;;;68.88;51.38;;;11.70;1.00;;;;;;5026855;28;20052;-59
2022/12/23 10:24:03;;;;;;;64.60;51.33;;;11.60;1.00;;;;;;5036260;28;20109;-62
2022/12/23 10:26:33;;;;;;;66.30;50.20;;;11.60;1.00;;;;;;5031900;28;20017;-63
2022/12/23 10:29:09;;;;;;;61.67;49.78;;;11.50;1.00;;;;;;5032812;28;20084;-59
2022/12/23 10:32:13;;;;;;;65.90;53.08;;;11.60;1.00;;;;;;5031703;28;20075;-60
2022/12/23 10:34:53;;;;;;;65.97;51.85;;;11.70;1.00;;;;;;5015578;28;20061;-62
2022/12/23 10:37:47;;;;;;;66.95;52.05;;;11.90;1.00;;;;;;5027730;28;20022;-63
2022/12/23 10:40:28;;;;;;;63.47;48.22;;;12.10;1.00;;;;;;5031597;28;20021;-61
2022/12/23 10:43:09;;;;;;;63.03;51.42;;;11.80;1.00;;;;;;5032630;28;20022;-62
2022/12/23 10:46:02;;;;;;;65.15;52.03;;;12.00;1.00;;;;;;5032437;28;20514;-60
2022/12/23 10:48:56;;;;;;;65.05;50.58;;;12.10;1.00;;;;;;5036523;28;20059;-56
2022/12/23 10:51:30;;;;;;;62.63;49.78;;;11.90;1.00;;;;;;5032252;28;20025;-54
2022/12/23 10:54:10;;;;;;;67.53;50.92;;;11.90;1.00;;;;;;5032474;28;20041;-50
2022/12/23 10:56:36;;;;;;;58.60;49.63;;;12.10;1.00;;;;;;5032496;28;20013;-50
2022/12/23 10:59:10;;;;;;;63.80;50.53;;;12.00;1.00;;;;;;5032374;28;20030;-59
2022/12/23 11:01:42;;;;;;;57.17;46.03;;;12.00;1.00;;;;;;5031833;28;20020;-57
2022/12/23 11:04:16;;;;;;;63.28;51.20;;;12.10;1.00;;;;;;5030758;28;20387;-56
2022/12/23 11:06:49;;;;;;;59.40;46.63;;;12.30;1.00;;;;;;5029990;28;20045;-51
2022/12/23 11:09:24;;;;;;;63.67;46.65;;;12.30;1.00;;;;;;5032318;28;20467;-56
2022/12/23 11:12:00;;;;;;;60.15;50.20;;;12.40;1.00;;;;;;5031017;28;20017;-55
2022/12/23 11:14:37;;;;;;;54.80;46.63;;;12.30;1.00;;;;;;5030920;28;20480;-60
2022/12/23 11:17:04;;;;;;;56.15;45.90;;;12.50;1.00;;;;;;5031792;28;20033;-59
2022/12/23 11:19:31;;;;;;;53.63;46.03;;;12.50;1.00;;;;;;5028931;28;20033;-60
2022/12/23 11:21:58;;;;;;;60.40;45.60;;;12.40;1.00;;;;;;5029143;28;20014;-60
2022/12/23 11:24:39;;;;;;;54.70;47.38;;;12.50;1.00;;;;;;5032232;28;20033;-60
2022/12/23 11:27:10;;;;;;;53.55;44.53;;;12.40;1.00;;;;;;5031077;28;20025;-60
2022/12/23 11:29:49;;;;;;;55.47;44.92;;;12.40;1.00;;;;;;5031954;28;20163;-62
2022/12/23 11:32:26;;;;;;;58.13;47.63;;;12.40;1.00;;;;;;5031486;28;20021;-65
2022/12/23 11:34:55;;;;;;;57.03;45.42;;;12.50;1.00;;;;;;5032003;28;20045;-61
2022/12/23 11:37:33;;;;;;;57.70;46.22;;;12.60;1.00;;;;;;5030673;28;20028;-62
2022/12/23 11:39:59;;;;;;;56.50;45.05;;;12.30;1.00;;;;;;5032150;28;20087;-65
2022/12/23 11:42:29;;;;;;;55.10;43.45;;;12.40;1.00;;;;;;5031858;28;20379;-63
2022/12/23 11:44:58;;;;;;;58.55;47.42;;;12.30;1.00;;;;;;5030492;28;20029;-63
2022/12/23 11:47:42;;;;;;;55.17;44.35;;;12.10;1.00;;;;;;5028043;28;20021;-62
2022/12/23 11:50:25;;;;;;;58.90;47.25;;;12.20;1.00;;;;;;5013471;28;20030;-63
2022/12/23 11:52:53;;;;;;;59.60;45.95;;;12.20;1.00;;;;;;5031394;28;20517;-60
2022/12/23 11:55:24;;;;;;;60.35;45.08;;;12.20;1.00;;;;;;5031860;28;20061;-61
2022/12/23 11:57:51;;;;;;;59.40;48.45;;;12.10;1.00;;;;;;5031386;28;20028;-61
2022/12/23 12:00:42;;;;;;;57.72;46.53;;;12.20;1.00;;;;;;5031294;28;20025;-61
2022/12/23 12:03:18;;;;;;;57.80;45.75;;;12.30;1.00;;;;;;5019203;28;20045;-61
2022/12/23 12:16:13;;;;;;;65.47;49.92;;;12.10;1.00;;;;;;5020897;28;20121;-61
2022/12/23 12:18:42;;;;;;;60.65;47.45;;;12.10;1.00;;;;;;5025259;28;20056;-61
2022/12/23 12:21:22;;;;;;;61.00;48.47;;;12.40;1.00;;;;;;5030831;28;20042;-61
2022/12/23 12:24:16;;;;;;;56.80;47.67;;;12.50;1.00;;;;;;5031601;28;20487;-61
2022/12/23 12:26:45;;;;;;;59.78;47.13;;;12.60;1.00;;;;;;5025179;28;20017;-61
2022/12/23 12:29:30;;;;;;;56.50;47.50;;;12.50;1.00;;;;;;5035146;28;20103;-61
2022/12/23 12:32:00;;;;;;;56.42;44.08;;;12.70;1.00;;;;;;5027619;28;20026;-61
2022/12/23 12:34:50;;;;;;;57.80;47.00;;;12.80;1.00;;;;;;5032683;28;20718;-61
2022/12/23 12:37:22;;;;;;;62.03;46.63;;;12.80;1.00;;;;;;5028091;28;20029;-61
2022/12/23 12:40:21;;;;;;;63.67;47.42;;;12.80;1.00;;;;;;5035142;28;20104;-61
2022/12/23 12:42:55;;;;;;;61.83;50.88;;;12.80;1.00;;;;;;5032874;28;20131;-60
2022/12/23 12:45:26;;;;;;;70.63;50.25;;;12.90;1.00;;;;;;5035208;28;20109;-61
2022/12/23 12:48:21;;;;;;;71.43;54.33;;;13.00;1.00;;;;;;5033414;28;20091;-61
2022/12/23 12:51:17;;;;;;;68.50;51.75;;;13.20;1.00;;;;;;5023414;28;20077;-61
2022/12/23 12:54:13;;;;;;;68.20;49.08;;;13.10;1.00;;;;;;5023178;28;20045;-61
2022/12/23 12:56:47;;;;;;;;;;;13.20;1.00;;;;;;5035563;28;20357;-60
2022/12/23 12:59:20;;;;;;;65.68;51.20;;;13.20;1.00;;;;;;5034591;28;19909;-60
2022/12/23 13:02:10;;;;;;;68.18;51.33;;;13.00;1.00;;;;;;5033161;28;20422;-60
2022/12/23 13:04:38;;;;;;;64.07;52.50;;;13.10;1.00;;;;;;5034464;28;20109;-61
2022/12/23 13:07:13;;;;;;;69.25;53.60;;;13.00;1.00;;;;;;5034799;28;20029;-61
2022/12/23 13:10:02;;;;;;;61.75;50.05;;;13.00;1.00;;;;;;5034612;28;20420;-60
2022/12/23 13:12:52;;;;;;;65.40;48.78;;;12.90;1.00;;;;;;5029866;28;20036;-60
2022/12/23 13:15:26;;;;;;;66.43;53.17;;;12.90;1.00;;;;;;5033202;28;20095;-62
2022/12/23 13:17:58;;;;;;;69.32;52.90;;;12.70;1.00;;;;;;5033403;28;20056;-61
2022/12/23 13:20:33;;;;;;;69.43;52.67;;;12.80;1.00;;;;;;5033807;28;20048;-62
2022/12/23 13:23:26;;;;;;;64.20;50.45;;;13.00;1.00;;;;;;5034419;28;20022;-63
2022/12/23 13:26:08;;;;;;;74.53;54.95;;;12.80;1.00;;;;;;5021089;28;20030;-62
2022/12/23 13:28:50;;;;;;;69.13;52.60;;;12.70;1.00;;;;;;5034478;28;20029;-60
2022/12/23 13:31:52;;;;;;;70.65;54.30;;;12.80;1.00;;;;;;5029421;28;20040;-61
2022/12/23 13:34:49;;;;;;;70.20;52.47;;;12.80;1.00;;;;;;5020574;28;20029;-61
2022/12/23 13:37:31;;;;;;;73.43;55.50;;;12.80;1.00;;;;;;5031666;28;20026;-60
2022/12/23 13:40:22;;;;;;;73.10;54.47;;;12.80;1.00;;;;;;5032730;28;20063;-60
2022/12/23 13:42:53;;;;;;;73.40;53.47;;;12.90;1.00;;;;;;5030320;28;20044;-62
2022/12/23 13:45:20;;;;;;;66.93;52.05;;;13.00;1.00;;;;;;5029308;28;20100;-60
2022/12/23 13:47:45;;;;;;;66.78;50.90;;;13.00;1.00;;;;;;5033333;28;20029;-61
2022/12/23 13:50:49;;;;;;;74.45;56.03;;;13.00;1.00;;;;;;5039192;28;20025;-64
2022/12/23 13:53:46;;;;;;;69.40;51.33;;;13.00;1.00;;;;;;4994341;28;20133;-62